createdAt,value
2019-01-10T00:00:18.757Z,147816.00
2019-01-10T00:01:25.093Z,147812.20
2019-01-10T00:02:31.481Z,147810.94
2019-01-10T00:03:37.785Z,147808.44
2019-01-10T00:04:44.132Z,147817.91
2019-01-10T00:05:50.326Z,147817.27
2019-01-10T00:06:56.335Z,147813.47
2019-01-10T00:08:02.326Z,147821.66
2019-01-10T00:09:07.944Z,147816.00
2019-01-10T00:10:14.080Z,147817.27
2019-01-10T00:11:20.189Z,147831.73
2019-01-10T00:12:26.642Z,147818.53
2019-01-10T00:13:32.980Z,147817.91
2019-01-10T00:14:39.008Z,147819.75
2019-01-10T00:15:45.350Z,147824.81
2019-01-10T00:16:51.748Z,147817.91
2019-01-10T00:17:58.124Z,147818.53
2019-01-10T00:19:03.740Z,147819.11
2019-01-10T00:20:09.396Z,147816.00
2019-01-10T00:21:15.777Z,147821.02
2019-01-10T00:22:22.147Z,147830.47
2019-01-10T00:23:28.487Z,147842.45
2019-01-10T00:24:34.815Z,147833.00
2019-01-10T00:25:40.828Z,147827.94
2019-01-10T00:26:46.817Z,147823.55
2019-01-10T00:27:53.145Z,147822.28
2019-01-10T00:28:59.493Z,147832.38
2019-01-10T00:30:08.541Z,147826.72
2019-01-10T00:31:14.532Z,147822.91
2019-01-10T00:32:20.558Z,147818.53
2019-01-10T00:33:27.336Z,147810.94
2019-01-10T00:34:33.679Z,147812.20
2019-01-10T00:35:40.004Z,147827.94
2019-01-10T00:36:46.323Z,147816.00
2019-01-10T00:37:52.686Z,147813.47
2019-01-10T00:38:59.012Z,147806.55
2019-01-10T00:40:04.680Z,147812.83
2019-01-10T00:41:11.040Z,147824.19
2019-01-10T00:42:17.447Z,147834.89
2019-01-10T00:43:24.381Z,147807.19
2019-01-10T00:44:30.699Z,147800.27
2019-01-10T00:45:37.036Z,147796.47
2019-01-10T00:46:43.392Z,147810.94
2019-01-10T00:47:49.763Z,147806.55
2019-01-10T00:48:56.116Z,147802.75
2019-01-10T00:50:02.456Z,147804.66
2019-01-10T00:51:08.750Z,147816.62
2019-01-10T00:52:15.172Z,147800.91
2019-01-10T00:53:21.507Z,147798.36
2019-01-10T00:54:28.467Z,147806.55
2019-01-10T00:55:35.357Z,147817.27
2019-01-10T00:56:42.323Z,147834.27
2019-01-10T00:57:48.379Z,147819.75
2019-01-10T00:58:54.954Z,147803.37
2019-01-10T01:00:01.284Z,147801.53
2019-01-10T01:01:07.598Z,147799.00
2019-01-10T01:02:13.945Z,147805.92
2019-01-10T01:03:20.268Z,147812.20
2019-01-10T01:04:26.634Z,147812.20
2019-01-10T01:05:32.954Z,147810.94
2019-01-10T01:06:39.304Z,147799.63
2019-01-10T01:07:45.678Z,147800.27
2019-01-10T01:08:52.020Z,147807.19
2019-01-10T01:09:58.360Z,147805.28
2019-01-10T01:11:04.010Z,147809.08
2019-01-10T01:12:10.370Z,147807.19
2019-01-10T01:13:16.721Z,147802.75
2019-01-10T01:14:22.787Z,147802.75
2019-01-10T01:15:28.411Z,147809.08
2019-01-10T01:16:34.752Z,147821.66
2019-01-10T01:17:41.759Z,147810.94
2019-01-10T01:18:48.575Z,147806.55
2019-01-10T01:19:54.640Z,147805.28
2019-01-10T01:21:00.934Z,147809.72
2019-01-10T01:22:07.253Z,147829.20
2019-01-10T01:23:13.582Z,147818.53
2019-01-10T01:24:20.112Z,147809.72
2019-01-10T01:25:26.084Z,147824.19
2019-01-10T01:26:32.423Z,147809.08
2019-01-10T01:27:38.749Z,147805.92
2019-01-10T01:28:45.092Z,147802.12
2019-01-10T01:29:51.370Z,147800.27
2019-01-10T01:30:57.433Z,147800.27
2019-01-10T01:32:03.368Z,147800.27
2019-01-10T01:33:09.750Z,147802.12
2019-01-10T01:34:16.054Z,147803.37
2019-01-10T01:35:21.800Z,147824.19
2019-01-10T01:36:28.028Z,147826.72
2019-01-10T01:37:34.341Z,147809.72
2019-01-10T01:38:41.666Z,147804.02
2019-01-10T01:39:48.544Z,147797.09
2019-01-10T01:40:54.909Z,147797.09
2019-01-10T01:42:01.273Z,147795.83
2019-01-10T01:43:07.799Z,147799.63
2019-01-10T01:44:13.650Z,147787.66
2019-01-10T01:45:19.265Z,147792.72
2019-01-10T01:46:25.235Z,147791.45
2019-01-10T01:47:32.968Z,147786.37
2019-01-10T01:48:39.400Z,147782.00
2019-01-10T01:49:45.349Z,147792.72
2019-01-10T01:50:51.703Z,147795.83
2019-01-10T01:51:58.042Z,147783.27
2019-01-10T01:53:03.691Z,147784.53
2019-01-10T01:54:09.761Z,147789.55
2019-01-10T01:55:14.949Z,147784.53
2019-01-10T01:56:21.296Z,147789.55
2019-01-10T01:57:27.664Z,147787.66
2019-01-10T01:58:34.069Z,147797.09
2019-01-10T01:59:40.070Z,147799.00
2019-01-10T02:00:46.430Z,147793.34
2019-01-10T02:01:53.245Z,147785.13
2019-01-10T02:02:59.589Z,147783.91
2019-01-10T02:04:05.570Z,147790.81
2019-01-10T02:05:11.022Z,147778.20
2019-01-10T02:06:16.973Z,147778.20
2019-01-10T02:07:22.927Z,147770.02
2019-01-10T02:08:29.240Z,147783.27
2019-01-10T02:09:35.242Z,147789.55
2019-01-10T02:10:41.247Z,147788.91
2019-01-10T02:11:47.586Z,147802.12
2019-01-10T02:12:53.317Z,147799.00
2019-01-10T02:13:59.621Z,147805.28
2019-01-10T02:15:05.272Z,147788.28
2019-01-10T02:16:11.242Z,147789.55
2019-01-10T02:17:17.555Z,147781.36
2019-01-10T02:18:23.737Z,147788.28
2019-01-10T02:19:29.698Z,147769.37
2019-01-10T02:20:36.030Z,147786.37
2019-01-10T02:21:42.370Z,147771.92
2019-01-10T02:22:48.367Z,147780.73
2019-01-10T02:23:54.883Z,147765.00
2019-01-10T02:25:01.241Z,147775.08
2019-01-10T02:26:07.568Z,147779.47
2019-01-10T02:27:13.186Z,147782.00
2019-01-10T02:28:19.525Z,147771.28
2019-01-10T02:29:25.510Z,147751.75
2019-01-10T02:30:41.655Z,147761.20
2019-01-10T02:31:38.196Z,147756.19
2019-01-10T02:32:44.600Z,147746.73
2019-01-10T02:33:50.875Z,147746.11
2019-01-10T02:34:56.876Z,147743.56
2019-01-10T02:36:02.515Z,147758.72
2019-01-10T02:37:08.181Z,147758.72
2019-01-10T02:38:14.513Z,147761.20
2019-01-10T02:39:20.935Z,147756.81
2019-01-10T02:40:27.259Z,147765.00
2019-01-10T02:41:33.625Z,147777.56
2019-01-10T02:42:39.291Z,147753.66
2019-01-10T02:43:45.637Z,147737.92
2019-01-10T02:44:51.950Z,147758.72
2019-01-10T02:45:58.285Z,147741.09
2019-01-10T02:47:05.899Z,147744.84
2019-01-10T02:48:13.043Z,147737.92
2019-01-10T02:49:19.007Z,147736.66
2019-01-10T02:50:25.013Z,147749.27
2019-01-10T02:51:31.370Z,147741.72
2019-01-10T02:52:37.662Z,147718.39
2019-01-10T02:53:44.031Z,147721.56
2019-01-10T02:54:50.312Z,147724.72
2019-01-10T02:55:56.629Z,147725.36
2019-01-10T02:57:02.947Z,147737.30
2019-01-10T02:58:08.886Z,147727.84
2019-01-10T02:59:15.274Z,147745.47
2019-01-10T03:00:21.603Z,147727.84
2019-01-10T03:01:27.921Z,147730.38
2019-01-10T03:02:34.239Z,147730.38
2019-01-10T03:03:40.216Z,147715.91
2019-01-10T03:04:46.225Z,147696.39
2019-01-10T03:05:51.837Z,147726.58
2019-01-10T03:06:58.167Z,147694.48
2019-01-10T03:08:04.344Z,147693.86
2019-01-10T03:09:11.196Z,147702.67
2019-01-10T03:10:18.230Z,147698.92
2019-01-10T03:11:24.243Z,147695.75
2019-01-10T03:12:30.568Z,147710.22
2019-01-10T03:13:37.154Z,147695.75
2019-01-10T03:14:43.265Z,147695.75
2019-01-10T03:15:49.667Z,147702.67
2019-01-10T03:16:55.955Z,147682.56
2019-01-10T03:18:02.330Z,147692.59
2019-01-10T03:19:08.674Z,147712.75
2019-01-10T03:20:15.223Z,147710.22
2019-01-10T03:21:21.594Z,147707.73
2019-01-10T03:22:27.908Z,147681.92
2019-01-10T03:23:34.280Z,147672.48
2019-01-10T03:24:40.310Z,147673.11
2019-01-10T03:25:46.688Z,147672.48
2019-01-10T03:26:53.017Z,147670.58
2019-01-10T03:27:59.321Z,147675.02
2019-01-10T03:29:05.302Z,147671.84
2019-01-10T03:30:11.712Z,147663.67
2019-01-10T03:31:18.033Z,147656.13
2019-01-10T03:32:24.364Z,147651.06
2019-01-10T03:33:30.759Z,147652.97
2019-01-10T03:34:37.092Z,147652.33
2019-01-10T03:35:43.400Z,147651.69
2019-01-10T03:36:49.698Z,147651.06
2019-01-10T03:37:55.982Z,147647.94
2019-01-10T03:39:01.989Z,147663.67
2019-01-10T03:40:16.417Z,147662.41
2019-01-10T03:41:22.758Z,147646.67
2019-01-10T03:42:29.077Z,147647.94
2019-01-10T03:43:35.432Z,147642.25
2019-01-10T03:44:41.805Z,147635.97
2019-01-10T03:45:47.811Z,147638.50
2019-01-10T03:46:54.160Z,147628.42
2019-01-10T03:48:00.494Z,147620.88
2019-01-10T03:49:06.811Z,147636.59
2019-01-10T03:50:12.508Z,147645.41
2019-01-10T03:51:18.804Z,147625.89
2019-01-10T03:52:25.154Z,147630.95
2019-01-10T03:53:31.550Z,147635.97
2019-01-10T03:54:37.919Z,147629.69
2019-01-10T03:55:44.196Z,147614.59
2019-01-10T03:56:50.518Z,147608.27
2019-01-10T03:57:56.814Z,147619.61
2019-01-10T03:59:03.121Z,147591.28
2019-01-10T04:00:09.554Z,147591.92
2019-01-10T04:01:15.886Z,147588.80
2019-01-10T04:02:21.915Z,147588.80
2019-01-10T04:03:28.240Z,147576.19
2019-01-10T04:04:34.564Z,147574.94
2019-01-10T04:05:40.888Z,147583.11
2019-01-10T04:06:47.218Z,147583.73
2019-01-10T04:07:52.816Z,147590.06
2019-01-10T04:08:59.172Z,147561.11
2019-01-10T04:10:04.855Z,147586.27
2019-01-10T04:11:11.186Z,147564.91
2019-01-10T04:12:18.164Z,147564.27
2019-01-10T04:13:24.686Z,147559.84
2019-01-10T04:14:31.000Z,147551.66
2019-01-10T04:15:37.383Z,147563.64
2019-01-10T04:16:43.721Z,147552.94
2019-01-10T04:17:49.675Z,147554.19
2019-01-10T04:18:55.981Z,147583.73
2019-01-10T04:20:02.338Z,147556.72
2019-01-10T04:21:17.010Z,147545.39
2019-01-10T04:22:14.975Z,147541.59
2019-01-10T04:23:21.310Z,147539.75
2019-01-10T04:24:28.845Z,147537.84
2019-01-10T04:25:35.165Z,147539.75
2019-01-10T04:26:41.495Z,147557.94
2019-01-10T04:27:47.538Z,147561.11
2019-01-10T04:28:53.834Z,147557.94
2019-01-10T04:30:00.294Z,147552.94
2019-01-10T04:31:06.537Z,147551.03
2019-01-10T04:32:12.895Z,147552.94
2019-01-10T04:33:19.194Z,147551.03
2019-01-10T04:34:25.517Z,147557.36
2019-01-10T04:35:31.857Z,147565.53
2019-01-10T04:36:37.873Z,147563.00
2019-01-10T04:37:44.337Z,147589.44
2019-01-10T04:38:50.786Z,147564.27
2019-01-10T04:39:57.159Z,147573.08
2019-01-10T04:41:03.519Z,147569.28
2019-01-10T04:42:09.133Z,147564.27
2019-01-10T04:43:15.461Z,147567.39
2019-01-10T04:44:21.770Z,147573.72
2019-01-10T04:45:28.131Z,147552.30
2019-01-10T04:46:34.547Z,147548.55
2019-01-10T04:47:40.911Z,147563.64
2019-01-10T04:48:47.197Z,147594.44
2019-01-10T04:49:53.547Z,147583.73
2019-01-10T04:50:59.891Z,147560.47
2019-01-10T04:52:06.190Z,147560.47
2019-01-10T04:53:12.197Z,147547.91
2019-01-10T04:54:18.514Z,147554.83
2019-01-10T04:55:24.900Z,147561.73
2019-01-10T04:56:32.006Z,147580.00
2019-01-10T04:57:39.043Z,147561.73
2019-01-10T04:58:45.616Z,147567.39
2019-01-10T04:59:52.151Z,147571.81
2019-01-10T05:00:58.611Z,147561.73
2019-01-10T05:02:04.971Z,147549.13
2019-01-10T05:03:12.193Z,147552.30
2019-01-10T05:04:18.481Z,147547.91
2019-01-10T05:05:24.204Z,147552.30
2019-01-10T05:06:30.593Z,147547.28
2019-01-10T05:07:36.948Z,147555.47
2019-01-10T05:08:43.291Z,147547.28
2019-01-10T05:09:49.616Z,147560.47
2019-01-10T05:10:55.757Z,147555.47
2019-01-10T05:12:02.061Z,147561.73
2019-01-10T05:13:08.427Z,147546.66
2019-01-10T05:14:16.782Z,147556.09
2019-01-10T05:15:21.188Z,147552.30
2019-01-10T05:16:27.532Z,147546.03
2019-01-10T05:17:33.881Z,147549.13
2019-01-10T05:18:40.242Z,147573.72
2019-01-10T05:19:46.555Z,147552.30
2019-01-10T05:20:52.918Z,147559.84
2019-01-10T05:21:58.932Z,147553.56
2019-01-10T05:23:04.547Z,147562.38
2019-01-10T05:24:10.871Z,147549.77
2019-01-10T05:25:16.465Z,147554.83
2019-01-10T05:26:22.794Z,147543.50
2019-01-10T05:27:29.105Z,147559.20
2019-01-10T05:28:35.440Z,147574.34
2019-01-10T05:29:41.725Z,147570.55
2019-01-10T05:30:48.053Z,147575.56
2019-01-10T05:31:54.369Z,147564.91
2019-01-10T05:33:00.738Z,147554.83
2019-01-10T05:34:07.050Z,147544.12
2019-01-10T05:35:12.691Z,147546.03
2019-01-10T05:36:19.009Z,147544.75
2019-01-10T05:37:25.338Z,147534.05
2019-01-10T05:38:31.643Z,147534.69
2019-01-10T05:39:47.201Z,147538.47
2019-01-10T05:40:44.384Z,147533.41
2019-01-10T05:41:50.697Z,147539.11
2019-01-10T05:42:57.002Z,147538.47
2019-01-10T05:44:03.334Z,147529.67
2019-01-10T05:45:10.234Z,147531.56
2019-01-10T05:46:16.606Z,147517.70
2019-01-10T05:47:22.946Z,147527.14
2019-01-10T05:48:29.242Z,147529.67
2019-01-10T05:49:35.646Z,147544.12
2019-01-10T05:50:43.737Z,147529.67
2019-01-10T05:51:48.341Z,147539.75
2019-01-10T05:52:54.675Z,147537.84
2019-01-10T05:54:01.012Z,147526.50
2019-01-10T05:55:06.658Z,147539.75
2019-01-10T05:56:15.579Z,147564.27
2019-01-10T05:57:19.367Z,147536.58
2019-01-10T05:58:25.698Z,147551.66
2019-01-10T05:59:32.011Z,147545.39
2019-01-10T06:00:38.488Z,147528.41
2019-01-10T06:01:44.812Z,147540.97
2019-01-10T06:02:51.150Z,147540.97
2019-01-10T06:03:57.469Z,147529.03
2019-01-10T06:05:03.485Z,147522.13
2019-01-10T06:06:09.893Z,147522.13
2019-01-10T06:07:16.244Z,147535.31
2019-01-10T06:08:22.593Z,147542.22
2019-01-10T06:09:28.889Z,147526.50
2019-01-10T06:10:35.190Z,147529.03
2019-01-10T06:11:41.506Z,147529.03
2019-01-10T06:12:47.897Z,147519.59
2019-01-10T06:13:54.213Z,147501.98
2019-01-10T06:15:00.514Z,147520.86
2019-01-10T06:16:06.556Z,147510.16
2019-01-10T06:17:12.887Z,147503.88
2019-01-10T06:18:19.212Z,147503.88
2019-01-10T06:19:26.856Z,147495.70
2019-01-10T06:20:31.499Z,147490.06
2019-01-10T06:21:37.857Z,147498.81
2019-01-10T06:22:43.795Z,147500.08
2019-01-10T06:23:50.189Z,147503.25
2019-01-10T06:24:56.556Z,147508.27
2019-01-10T06:26:02.894Z,147503.88
2019-01-10T06:27:08.839Z,147508.89
2019-01-10T06:28:15.231Z,147522.77
2019-01-10T06:29:21.494Z,147510.16
2019-01-10T06:30:27.889Z,147501.98
2019-01-10T06:31:34.200Z,147501.98
2019-01-10T06:32:40.526Z,147498.23
2019-01-10T06:33:46.883Z,147496.34
2019-01-10T06:34:53.198Z,147491.28
2019-01-10T06:35:59.529Z,147495.08
2019-01-10T06:37:05.609Z,147503.25
2019-01-10T06:38:11.962Z,147489.42
2019-01-10T06:39:19.786Z,147476.83
2019-01-10T06:40:23.976Z,147496.34
2019-01-10T06:41:29.970Z,147497.59
2019-01-10T06:42:36.468Z,147490.06
2019-01-10T06:43:42.836Z,147476.83
2019-01-10T06:44:49.145Z,147482.47
2019-01-10T06:45:55.600Z,147484.38
2019-01-10T06:47:01.878Z,147481.84
2019-01-10T06:48:08.206Z,147492.55
2019-01-10T06:49:14.572Z,147498.81
2019-01-10T06:50:20.869Z,147495.08
2019-01-10T06:51:27.232Z,147493.17
2019-01-10T06:52:33.551Z,147492.55
2019-01-10T06:53:39.538Z,147508.27
2019-01-10T06:54:56.149Z,147523.97
2019-01-10T06:55:51.905Z,147505.14
2019-01-10T06:56:58.257Z,147513.95
2019-01-10T06:58:04.197Z,147506.41
2019-01-10T06:59:10.512Z,147513.95
2019-01-10T07:00:20.239Z,147517.06
2019-01-10T07:01:26.610Z,147518.97
2019-01-10T07:02:32.893Z,147539.11
2019-01-10T07:03:39.237Z,147531.56
2019-01-10T07:04:45.538Z,147517.70
2019-01-10T07:05:51.854Z,147517.70
2019-01-10T07:06:58.251Z,147511.42
2019-01-10T07:08:04.591Z,147525.23
2019-01-10T07:09:10.206Z,147520.86
2019-01-10T07:10:18.482Z,147534.69
2019-01-10T07:11:24.847Z,147515.22
2019-01-10T07:12:31.257Z,147512.69
2019-01-10T07:13:37.271Z,147510.16
2019-01-10T07:14:43.578Z,147527.77
2019-01-10T07:15:49.531Z,147518.33
2019-01-10T07:16:55.883Z,147539.11
2019-01-10T07:18:02.233Z,147534.05
2019-01-10T07:19:08.273Z,147537.84
2019-01-10T07:20:13.884Z,147547.91
2019-01-10T07:21:20.346Z,147546.66
2019-01-10T07:22:26.662Z,147542.86
2019-01-10T07:23:32.995Z,147523.39
2019-01-10T07:24:39.354Z,147529.03
2019-01-10T07:25:45.738Z,147526.50
2019-01-10T07:26:51.185Z,147524.61
2019-01-10T07:27:57.297Z,147515.80
2019-01-10T07:29:02.972Z,147525.23
2019-01-10T07:30:08.614Z,147533.41
2019-01-10T07:31:29.516Z,147546.66
2019-01-10T07:32:35.861Z,147542.22
2019-01-10T07:33:42.191Z,147537.84
2019-01-10T07:34:48.611Z,147546.66
2019-01-10T07:35:54.225Z,147540.97
2019-01-10T07:37:00.566Z,147538.47
2019-01-10T07:38:06.552Z,147534.69
2019-01-10T07:39:12.840Z,147529.67
2019-01-10T07:40:19.131Z,147515.22
2019-01-10T07:41:25.503Z,147517.70
2019-01-10T07:42:34.290Z,147522.77
2019-01-10T07:43:40.582Z,147537.22
2019-01-10T07:44:46.911Z,147532.20
2019-01-10T07:45:53.222Z,147537.22
2019-01-10T07:46:59.585Z,147529.67
2019-01-10T07:48:05.335Z,147518.33
2019-01-10T07:49:11.632Z,147532.78
2019-01-10T07:50:17.941Z,147549.77
2019-01-10T07:51:23.390Z,147541.59
2019-01-10T07:52:29.842Z,147559.84
2019-01-10T07:53:35.838Z,147580.00
2019-01-10T07:54:42.600Z,147548.55
2019-01-10T07:55:48.494Z,147528.41
2019-01-10T07:56:54.903Z,147539.75
2019-01-10T07:58:01.617Z,147523.97
2019-01-10T07:59:07.948Z,147527.14
2019-01-10T08:00:17.188Z,147540.97
2019-01-10T08:01:23.501Z,147540.97
2019-01-10T08:02:29.857Z,147545.39
2019-01-10T08:03:36.209Z,147546.66
2019-01-10T08:04:42.542Z,147532.20
2019-01-10T08:05:48.859Z,147527.77
2019-01-10T08:06:55.229Z,147558.58
2019-01-10T08:08:01.203Z,147569.92
2019-01-10T08:09:06.833Z,147560.47
2019-01-10T08:10:15.918Z,147574.34
2019-01-10T08:11:22.264Z,147539.75
2019-01-10T08:12:28.672Z,147546.03
2019-01-10T08:13:35.022Z,147542.22
2019-01-10T08:14:41.319Z,147537.84
2019-01-10T08:15:47.679Z,147552.94
2019-01-10T08:16:54.005Z,147537.84
2019-01-10T08:18:00.323Z,147540.38
2019-01-10T08:19:05.979Z,147537.22
2019-01-10T08:20:11.683Z,147518.97
2019-01-10T08:21:17.930Z,147534.69
2019-01-10T08:22:28.029Z,147542.22
2019-01-10T08:23:30.655Z,147547.91
2019-01-10T08:24:36.973Z,147541.59
2019-01-10T08:25:43.316Z,147539.11
2019-01-10T08:26:49.651Z,147543.50
2019-01-10T08:27:55.329Z,147542.86
2019-01-10T08:29:01.650Z,147538.47
2019-01-10T08:30:08.058Z,147554.19
2019-01-10T08:31:14.414Z,147552.94
2019-01-10T08:32:20.776Z,147550.41
2019-01-10T08:33:27.083Z,147547.91
2019-01-10T08:34:33.067Z,147542.86
2019-01-10T08:35:39.477Z,147551.66
2019-01-10T08:36:45.758Z,147539.75
2019-01-10T08:37:51.790Z,147551.66
2019-01-10T08:38:58.173Z,147539.75
2019-01-10T08:40:03.794Z,147552.94
2019-01-10T08:41:09.751Z,147535.31
2019-01-10T08:42:16.162Z,147546.66
2019-01-10T08:43:22.524Z,147544.75
2019-01-10T08:44:28.930Z,147538.47
2019-01-10T08:45:35.389Z,147543.50
2019-01-10T08:46:41.322Z,147537.22
2019-01-10T08:47:47.318Z,147552.94
2019-01-10T08:48:53.750Z,147534.69
2019-01-10T08:50:00.275Z,147531.56
2019-01-10T08:51:05.810Z,147535.31
2019-01-10T08:52:12.109Z,147525.23
2019-01-10T08:53:18.174Z,147527.14
2019-01-10T08:54:24.486Z,147520.86
2019-01-10T08:55:30.818Z,147516.44
2019-01-10T08:56:37.142Z,147512.69
2019-01-10T08:57:43.486Z,147525.23
2019-01-10T08:58:49.827Z,147551.03
2019-01-10T08:59:56.171Z,147551.66
2019-01-10T09:01:02.525Z,147547.91
2019-01-10T09:02:08.824Z,147568.66
2019-01-10T09:03:15.330Z,147553.56
2019-01-10T09:04:21.659Z,147544.75
2019-01-10T09:05:27.954Z,147513.95
2019-01-10T09:06:34.246Z,147517.06
2019-01-10T09:07:40.590Z,147546.66
2019-01-10T09:08:46.623Z,147541.59
2019-01-10T09:09:52.572Z,147535.31
2019-01-10T09:10:58.533Z,147547.91
2019-01-10T09:12:05.650Z,147532.78
2019-01-10T09:13:12.018Z,147542.22
2019-01-10T09:14:18.341Z,147547.91
2019-01-10T09:15:33.904Z,147531.56
2019-01-10T09:16:30.367Z,147526.50
2019-01-10T09:17:36.738Z,147523.39
2019-01-10T09:18:43.120Z,147522.13
2019-01-10T09:19:50.913Z,147530.94
2019-01-10T09:21:03.926Z,147525.23
2019-01-10T09:22:01.823Z,147510.16
2019-01-10T09:23:08.193Z,147512.69
2019-01-10T09:24:14.550Z,147515.80
2019-01-10T09:25:20.889Z,147540.97
2019-01-10T09:26:29.423Z,147544.12
2019-01-10T09:27:33.633Z,147532.20
2019-01-10T09:28:39.972Z,147538.47
2019-01-10T09:29:46.280Z,147549.13
2019-01-10T09:30:52.580Z,147542.86
2019-01-10T09:31:58.940Z,147565.53
2019-01-10T09:33:05.625Z,147554.83
2019-01-10T09:34:12.507Z,147538.47
2019-01-10T09:35:18.127Z,147519.59
2019-01-10T09:36:24.478Z,147527.77
2019-01-10T09:37:30.895Z,147522.13
2019-01-10T09:38:37.241Z,147527.14
2019-01-10T09:39:43.617Z,147537.22
2019-01-10T09:40:49.958Z,147544.75
2019-01-10T09:41:56.301Z,147517.70
2019-01-10T09:43:02.659Z,147535.94
2019-01-10T09:44:08.278Z,147544.75
2019-01-10T09:45:13.921Z,147556.72
2019-01-10T09:46:20.269Z,147576.19
2019-01-10T09:47:26.297Z,147580.00
2019-01-10T09:48:32.681Z,147565.53
2019-01-10T09:49:39.002Z,147562.38
2019-01-10T09:50:45.306Z,147556.72
2019-01-10T09:51:51.605Z,147563.00
2019-01-10T09:52:57.234Z,147562.38
2019-01-10T09:54:03.550Z,147568.66
2019-01-10T09:55:09.197Z,147566.75
2019-01-10T09:56:15.521Z,147568.66
2019-01-10T09:57:21.851Z,147568.66
2019-01-10T09:58:28.166Z,147576.83
2019-01-10T09:59:34.511Z,147578.09
2019-01-10T10:00:40.837Z,147571.19
2019-01-10T10:01:46.839Z,147573.72
2019-01-10T10:02:52.812Z,147573.72
2019-01-10T10:03:59.186Z,147588.17
2019-01-10T10:05:04.875Z,147601.36
2019-01-10T10:06:11.223Z,147615.23
2019-01-10T10:07:17.798Z,147597.61
2019-01-10T10:08:24.133Z,147568.02
2019-01-10T10:09:30.109Z,147542.86
2019-01-10T10:10:36.418Z,147543.50
2019-01-10T10:11:42.762Z,147553.56
2019-01-10T10:12:49.133Z,147544.12
2019-01-10T10:13:55.445Z,147557.94
2019-01-10T10:15:01.831Z,147542.86
2019-01-10T10:16:07.852Z,147561.11
2019-01-10T10:17:14.149Z,147538.47
2019-01-10T10:18:20.502Z,147565.53
2019-01-10T10:19:26.789Z,147570.55
2019-01-10T10:20:32.380Z,147559.84
2019-01-10T10:21:38.685Z,147555.47
2019-01-10T10:22:44.695Z,147566.13
2019-01-10T10:23:50.999Z,147562.38
2019-01-10T10:24:57.342Z,147591.92
2019-01-10T10:26:03.296Z,147586.27
2019-01-10T10:27:09.233Z,147568.66
2019-01-10T10:28:15.590Z,147566.75
2019-01-10T10:29:21.952Z,147595.08
2019-01-10T10:30:27.682Z,147580.00
2019-01-10T10:31:34.038Z,147581.25
2019-01-10T10:32:40.333Z,147551.03
2019-01-10T10:33:46.678Z,147561.11
2019-01-10T10:34:52.961Z,147576.19
2019-01-10T10:35:59.332Z,147592.55
2019-01-10T10:37:06.452Z,147601.36
2019-01-10T10:38:13.339Z,147603.25
2019-01-10T10:39:19.676Z,147590.70
2019-01-10T10:40:25.727Z,147598.88
2019-01-10T10:41:32.017Z,147595.72
2019-01-10T10:42:37.729Z,147574.94
2019-01-10T10:43:44.124Z,147574.34
2019-01-10T10:44:50.361Z,147563.00
2019-01-10T10:46:01.531Z,147572.44
2019-01-10T10:47:02.658Z,147562.38
2019-01-10T10:48:08.589Z,147564.91
2019-01-10T10:49:14.603Z,147559.84
2019-01-10T10:50:20.188Z,147557.36
2019-01-10T10:51:26.517Z,147565.53
2019-01-10T10:52:32.106Z,147562.38
2019-01-10T10:53:38.439Z,147552.94
2019-01-10T10:54:44.739Z,147575.56
2019-01-10T10:55:50.761Z,147573.08
2019-01-10T10:56:57.163Z,147574.34
2019-01-10T10:58:04.198Z,147573.08
2019-01-10T10:59:11.289Z,147565.53
2019-01-10T11:00:19.211Z,147567.39
2019-01-10T11:01:25.227Z,147578.09
2019-01-10T11:02:31.152Z,147580.63
2019-01-10T11:03:38.849Z,147583.11
2019-01-10T11:04:43.914Z,147574.34
2019-01-10T11:05:50.225Z,147571.19
2019-01-10T11:06:56.543Z,147602.63
2019-01-10T11:08:02.899Z,147622.14
2019-01-10T11:09:09.236Z,147629.69
2019-01-10T11:10:16.006Z,147618.97
2019-01-10T11:11:22.330Z,147613.97
2019-01-10T11:12:28.871Z,147624.67
2019-01-10T11:13:35.310Z,147592.55
2019-01-10T11:14:41.639Z,147605.78
2019-01-10T11:15:47.613Z,147596.34
2019-01-10T11:16:53.918Z,147602.63
2019-01-10T11:17:59.888Z,147627.16
2019-01-10T11:19:07.153Z,147646.67
2019-01-10T11:20:15.976Z,147684.41
2019-01-10T11:21:22.383Z,147661.77
2019-01-10T11:22:28.911Z,147654.86
2019-01-10T11:23:35.272Z,147654.86
2019-01-10T11:24:41.284Z,147644.14
2019-01-10T11:25:47.263Z,147647.94
2019-01-10T11:26:53.621Z,147641.03
2019-01-10T11:27:59.345Z,147651.69
2019-01-10T11:29:05.008Z,147627.16
2019-01-10T11:30:11.992Z,147627.78
2019-01-10T11:31:18.320Z,147627.16
2019-01-10T11:32:24.641Z,147636.59
2019-01-10T11:33:31.090Z,147633.44
2019-01-10T11:34:37.382Z,147632.84
2019-01-10T11:35:43.721Z,147646.67
2019-01-10T11:36:50.047Z,147672.48
2019-01-10T11:37:55.664Z,147658.02
2019-01-10T11:39:02.006Z,147657.39
2019-01-10T11:40:18.665Z,147681.30
2019-01-10T11:41:30.496Z,147673.75
2019-01-10T11:42:36.885Z,147674.37
2019-01-10T11:43:43.216Z,147651.06
2019-01-10T11:44:49.564Z,147685.67
2019-01-10T11:45:55.902Z,147688.84
2019-01-10T11:47:02.261Z,147698.92
2019-01-10T11:48:08.573Z,147727.84
2019-01-10T11:49:14.962Z,147691.37
2019-01-10T11:50:20.978Z,147668.69
2019-01-10T11:51:27.249Z,147675.59
2019-01-10T11:52:33.556Z,147688.84
2019-01-10T11:53:39.861Z,147684.41
2019-01-10T11:54:46.210Z,147676.23
2019-01-10T11:55:52.497Z,147669.31
2019-01-10T11:56:58.808Z,147668.05
2019-01-10T11:58:04.443Z,147675.02
2019-01-10T11:59:10.787Z,147678.77
2019-01-10T12:00:18.023Z,147680.66
2019-01-10T12:01:24.009Z,147679.39
2019-01-10T12:02:36.259Z,147694.48
2019-01-10T12:03:37.700Z,147714.66
2019-01-10T12:04:44.073Z,147727.84
2019-01-10T12:05:52.970Z,147711.48
2019-01-10T12:06:56.398Z,147706.47
2019-01-10T12:08:07.697Z,147712.13
2019-01-10T12:12:54.959Z,147719.66
2019-01-10T12:14:01.337Z,147708.36
2019-01-10T12:15:06.995Z,147698.28
2019-01-10T12:16:13.300Z,147698.28
2019-01-10T12:17:19.629Z,147694.48
2019-01-10T12:18:25.979Z,147705.83
2019-01-10T12:19:32.377Z,147705.20
2019-01-10T12:20:38.701Z,147711.48
2019-01-10T12:21:44.817Z,147710.22
2019-01-10T12:22:50.261Z,147706.47
2019-01-10T12:23:56.582Z,147712.75
2019-01-10T12:25:02.946Z,147721.56
2019-01-10T12:26:09.258Z,147743.56
2019-01-10T12:27:15.629Z,147751.75
2019-01-10T12:28:21.599Z,147733.53
2019-01-10T12:29:35.920Z,147714.66
2019-01-10T12:30:34.315Z,147722.19
2019-01-10T12:31:40.637Z,147729.73
2019-01-10T12:32:46.677Z,147749.91
2019-01-10T12:33:52.722Z,147750.53
2019-01-10T12:34:59.094Z,147744.84
2019-01-10T12:36:04.761Z,147712.75
2019-01-10T12:37:11.145Z,147714.66
2019-01-10T12:38:17.082Z,147715.28
2019-01-10T12:39:23.180Z,147714.66
2019-01-10T12:40:29.555Z,147733.53